sensor_id;sensor_type;location;lat;lon;timestamp;P1;durP1;ratioP1;P2;durP2;ratioP2
41229;SDS011;26964;50.428;19.218;2023-08-06T00:00:11;35.1;;;20.6;;
41229;SDS011;26964;50.428;19.218;2023-08-06T00:01:01;32.8;;;20.9;;
41229;SDS011;26964;50.428;19.218;2023-08-06T00:02:00;28.5;;;20.1;;
41229;SDS011;26964;50.428;19.218;2023-08-06T00:03:00;33.1;;;20.5;;
41229;SDS011;26964;50.428;19.218;2023-08-06T00:04:01;28.3;;;19.0;;
41229;SDS011;26964;50.428;19.218;2023-08-06T00:05:00;26.8;;;18.0;;
41229;SDS011;26964;50.428;19.218;2023-08-06T00:06:01;28.3;;;17.7;;
41229;SDS011;26964;50.428;19.218;2023-08-06T00:07:00;28.6;;;18.8;;
41229;SDS011;26964;50.428;19.218;2023-08-06T00:08:00;25.4;;;17.7;;
41229;SDS011;26964;50.428;19.218;2023-08-06T00:09:01;27.5;;;18.1;;
41229;SDS011;26964;50.428;19.218;2023-08-06T00:10:01;25.7;;;17.8;;
41229;SDS011;26964;50.428;19.218;2023-08-06T00:11:01;29.3;;;17.8;;
41229;SDS011;26964;50.428;19.218;2023-08-06T00:12:00;26.4;;;18.3;;
41229;SDS011;26964;50.428;19.218;2023-08-06T00:13:00;24.1;;;16.7;;
41229;SDS011;26964;50.428;19.218;2023-08-06T00:14:01;25.9;;;16.1;;
41229;SDS011;26964;50.428;19.218;2023-08-06T00:15:01;25.4;;;16.2;;
41229;SDS011;26964;50.428;19.218;2023-08-06T00:17:00;22.3;;;14.4;;
41229;SDS011;26964;50.428;19.218;2023-08-06T00:18:00;25.2;;;15.8;;
41229;SDS011;26964;50.428;19.218;2023-08-06T00:19:01;20.8;;;14.5;;
41229;SDS011;26964;50.428;19.218;2023-08-06T00:20:01;21.9;;;14.6;;
41229;SDS011;26964;50.428;19.218;2023-08-06T00:21:01;23.5;;;14.9;;
41229;SDS011;26964;50.428;19.218;2023-08-06T00:22:01;20.9;;;13.7;;
41229;SDS011;26964;50.428;19.218;2023-08-06T00:23:00;20.2;;;12.9;;
41229;SDS011;26964;50.428;19.218;2023-08-06T00:24:01;17.2;;;13.4;;
41229;SDS011;26964;50.428;19.218;2023-08-06T00:25:00;18.0;;;12.5;;
41229;SDS011;26964;50.428;19.218;2023-08-06T00:26:01;19.1;;;12.7;;
41229;SDS011;26964;50.428;19.218;2023-08-06T00:27:01;16.6;;;11.7;;
41229;SDS011;26964;50.428;19.218;2023-08-06T00:28:01;17.6;;;11.5;;
41229;SDS011;26964;50.428;19.218;2023-08-06T00:29:01;16.1;;;11.8;;
41229;SDS011;26964;50.428;19.218;2023-08-06T00:30:01;16.3;;;11.5;;
41229;SDS011;26964;50.428;19.218;2023-08-06T00:31:01;17.2;;;11.4;;
41229;SDS011;26964;50.428;19.218;2023-08-06T00:32:01;15.2;;;10.9;;
41229;SDS011;26964;50.428;19.218;2023-08-06T00:33:00;15.1;;;10.9;;
41229;SDS011;26964;50.428;19.218;2023-08-06T00:34:01;15.7;;;11.6;;
41229;SDS011;26964;50.428;19.218;2023-08-06T00:35:01;14.4;;;10.3;;
41229;SDS011;26964;50.428;19.218;2023-08-06T00:36:00;16.1;;;11.4;;
41229;SDS011;26964;50.428;19.218;2023-08-06T00:37:01;15.0;;;10.6;;
41229;SDS011;26964;50.428;19.218;2023-08-06T00:38:01;12.9;;;9.7;;
41229;SDS011;26964;50.428;19.218;2023-08-06T00:39:01;12.4;;;9.2;;
41229;SDS011;26964;50.428;19.218;2023-08-06T00:40:02;12.8;;;9.9;;
41229;SDS011;26964;50.428;19.218;2023-08-06T00:41:01;13.6;;;9.4;;
41229;SDS011;26964;50.428;19.218;2023-08-06T00:42:01;13.4;;;9.8;;
41229;SDS011;26964;50.428;19.218;2023-08-06T00:43:01;14.5;;;9.2;;
41229;SDS011;26964;50.428;19.218;2023-08-06T00:44:01;12.5;;;9.0;;
41229;SDS011;26964;50.428;19.218;2023-08-06T00:45:01;14.1;;;9.5;;
41229;SDS011;26964;50.428;19.218;2023-08-06T00:46:01;11.8;;;8.6;;
41229;SDS011;26964;50.428;19.218;2023-08-06T00:47:03;11.7;;;9.4;;
41229;SDS011;26964;50.428;19.218;2023-08-06T00:48:01;12.4;;;8.8;;
41229;SDS011;26964;50.428;19.218;2023-08-06T00:49:01;13.1;;;8.8;;
41229;SDS011;26964;50.428;19.218;2023-08-06T00:50:01;12.0;;;8.8;;
41229;SDS011;26964;50.428;19.218;2023-08-06T00:51:01;11.2;;;9.1;;
41229;SDS011;26964;50.428;19.218;2023-08-06T00:52:01;13.1;;;9.2;;
41229;SDS011;26964;50.428;19.218;2023-08-06T00:53:01;10.7;;;8.9;;
41229;SDS011;26964;50.428;19.218;2023-08-06T00:54:02;12.2;;;9.1;;
41229;SDS011;26964;50.428;19.218;2023-08-06T00:55:00;12.2;;;9.5;;
41229;SDS011;26964;50.428;19.218;2023-08-06T00:56:01;13.6;;;9.9;;
41229;SDS011;26964;50.428;19.218;2023-08-06T00:57:01;13.5;;;10.6;;
41229;SDS011;26964;50.428;19.218;2023-08-06T00:58:01;16.2;;;10.6;;
41229;SDS011;26964;50.428;19.218;2023-08-06T00:59:01;14.6;;;10.5;;
41229;SDS011;26964;50.428;19.218;2023-08-06T01:00:02;13.9;;;9.8;;
41229;SDS011;26964;50.428;19.218;2023-08-06T01:01:02;12.5;;;9.2;;
41229;SDS011;26964;50.428;19.218;2023-08-06T01:02:01;12.4;;;8.8;;
41229;SDS011;26964;50.428;19.218;2023-08-06T01:03:01;11.5;;;9.0;;
41229;SDS011;26964;50.428;19.218;2023-08-06T01:04:01;14.5;;;10.5;;
41229;SDS011;26964;50.428;19.218;2023-08-06T01:05:01;12.9;;;9.8;;
41229;SDS011;26964;50.428;19.218;2023-08-06T01:06:01;11.9;;;9.5;;
41229;SDS011;26964;50.428;19.218;2023-08-06T01:07:03;11.1;;;9.1;;
41229;SDS011;26964;50.428;19.218;2023-08-06T01:09:04;13.0;;;9.6;;
41229;SDS011;26964;50.428;19.218;2023-08-06T01:12:05;10.3;;;8.5;;
41229;SDS011;26964;50.428;19.218;2023-08-06T01:13:04;10.1;;;7.9;;
41229;SDS011;26964;50.428;19.218;2023-08-06T01:14:02;8.7;;;7.6;;
41229;SDS011;26964;50.428;19.218;2023-08-06T01:15:02;9.4;;;8.0;;
41229;SDS011;26964;50.428;19.218;2023-08-06T01:16:01;10.1;;;8.3;;
41229;SDS011;26964;50.428;19.218;2023-08-06T01:17:01;10.0;;;7.9;;
41229;SDS011;26964;50.428;19.218;2023-08-06T01:18:01;10.0;;;7.6;;
41229;SDS011;26964;50.428;19.218;2023-08-06T01:19:01;9.0;;;7.4;;
41229;SDS011;26964;50.428;19.218;2023-08-06T01:20:01;9.4;;;7.8;;
41229;SDS011;26964;50.428;19.218;2023-08-06T01:21:00;11.0;;;7.8;;
41229;SDS011;26964;50.428;19.218;2023-08-06T01:22:01;9.6;;;8.1;;
41229;SDS011;26964;50.428;19.218;2023-08-06T01:23:00;11.0;;;8.1;;
41229;SDS011;26964;50.428;19.218;2023-08-06T01:24:01;9.3;;;7.5;;
41229;SDS011;26964;50.428;19.218;2023-08-06T01:25:01;9.3;;;7.9;;
41229;SDS011;26964;50.428;19.218;2023-08-06T01:26:02;9.9;;;7.8;;
41229;SDS011;26964;50.428;19.218;2023-08-06T01:27:02;8.9;;;7.4;;
41229;SDS011;26964;50.428;19.218;2023-08-06T01:28:04;10.3;;;7.9;;
41229;SDS011;26964;50.428;19.218;2023-08-06T01:29:03;8.2;;;7.1;;
41229;SDS011;26964;50.428;19.218;2023-08-06T01:30:03;9.4;;;7.9;;
41229;SDS011;26964;50.428;19.218;2023-08-06T01:31:02;10.8;;;7.9;;
41229;SDS011;26964;50.428;19.218;2023-08-06T01:32:00;10.0;;;8.1;;
41229;SDS011;26964;50.428;19.218;2023-08-06T01:33:01;9.1;;;7.5;;
41229;SDS011;26964;50.428;19.218;2023-08-06T01:34:00;9.6;;;7.3;;
41229;SDS011;26964;50.428;19.218;2023-08-06T01:35:02;9.4;;;7.9;;
41229;SDS011;26964;50.428;19.218;2023-08-06T01:36:01;9.3;;;7.5;;
41229;SDS011;26964;50.428;19.218;2023-08-06T01:37:01;10.0;;;7.2;;
41229;SDS011;26964;50.428;19.218;2023-08-06T01:38:01;9.5;;;7.9;;
41229;SDS011;26964;50.428;19.218;2023-08-06T01:39:00;9.3;;;7.7;;
41229;SDS011;26964;50.428;19.218;2023-08-06T01:40:00;12.0;;;7.4;;
41229;SDS011;26964;50.428;19.218;2023-08-06T01:41:00;9.4;;;7.9;;
41229;SDS011;26964;50.428;19.218;2023-08-06T01:42:00;9.3;;;7.5;;
41229;SDS011;26964;50.428;19.218;2023-08-06T01:43:01;10.0;;;7.6;;
41229;SDS011;26964;50.428;19.218;2023-08-06T01:44:00;9.1;;;7.5;;
41229;SDS011;26964;50.428;19.218;2023-08-06T01:45:01;10.2;;;7.6;;
41229;SDS011;26964;50.428;19.218;2023-08-06T01:46:01;10.8;;;7.6;;
41229;SDS011;26964;50.428;19.218;2023-08-06T01:47:01;9.4;;;8.3;;
41229;SDS011;26964;50.428;19.218;2023-08-06T01:48:01;9.1;;;7.6;;
41229;SDS011;26964;50.428;19.218;2023-08-06T01:49:00;9.2;;;8.3;;
41229;SDS011;26964;50.428;19.218;2023-08-06T01:50:01;9.7;;;8.0;;
41229;SDS011;26964;50.428;19.218;2023-08-06T01:51:00;10.2;;;7.4;;
41229;SDS011;26964;50.428;19.218;2023-08-06T01:52:01;9.4;;;7.3;;
41229;SDS011;26964;50.428;19.218;2023-08-06T01:53:00;10.0;;;7.4;;
41229;SDS011;26964;50.428;19.218;2023-08-06T01:54:01;9.1;;;7.5;;
41229;SDS011;26964;50.428;19.218;2023-08-06T01:55:00;8.6;;;7.3;;
41229;SDS011;26964;50.428;19.218;2023-08-06T01:56:03;8.4;;;6.7;;
41229;SDS011;26964;50.428;19.218;2023-08-06T01:57:01;9.1;;;7.3;;
41229;SDS011;26964;50.428;19.218;2023-08-06T01:58:01;9.3;;;7.6;;
41229;SDS011;26964;50.428;19.218;2023-08-06T01:59:01;8.0;;;7.0;;
41229;SDS011;26964;50.428;19.218;2023-08-06T02:00:01;9.1;;;7.1;;
41229;SDS011;26964;50.428;19.218;2023-08-06T02:01:01;9.3;;;7.3;;
41229;SDS011;26964;50.428;19.218;2023-08-06T02:02:01;15.4;;;8.0;;
41229;SDS011;26964;50.428;19.218;2023-08-06T02:03:00;10.1;;;8.1;;
41229;SDS011;26964;50.428;19.218;2023-08-06T02:04:01;10.2;;;7.9;;
41229;SDS011;26964;50.428;19.218;2023-08-06T02:05:02;9.1;;;7.4;;
41229;SDS011;26964;50.428;19.218;2023-08-06T02:06:01;8.1;;;7.1;;
41229;SDS011;26964;50.428;19.218;2023-08-06T02:07:01;10.6;;;8.0;;
41229;SDS011;26964;50.428;19.218;2023-08-06T02:08:01;12.9;;;7.9;;
41229;SDS011;26964;50.428;19.218;2023-08-06T02:09:01;10.0;;;7.9;;
41229;SDS011;26964;50.428;19.218;2023-08-06T02:10:01;8.4;;;7.5;;
41229;SDS011;26964;50.428;19.218;2023-08-06T02:11:01;9.0;;;7.7;;
41229;SDS011;26964;50.428;19.218;2023-08-06T02:12:01;9.6;;;7.7;;
41229;SDS011;26964;50.428;19.218;2023-08-06T02:13:01;9.3;;;7.4;;
41229;SDS011;26964;50.428;19.218;2023-08-06T02:14:00;8.9;;;7.2;;
41229;SDS011;26964;50.428;19.218;2023-08-06T02:15:01;10.0;;;7.0;;
41229;SDS011;26964;50.428;19.218;2023-08-06T02:16:01;9.9;;;7.6;;
41229;SDS011;26964;50.428;19.218;2023-08-06T02:17:01;8.2;;;6.9;;
41229;SDS011;26964;50.428;19.218;2023-08-06T02:18:01;7.5;;;6.8;;
41229;SDS011;26964;50.428;19.218;2023-08-06T02:19:01;10.0;;;7.1;;
41229;SDS011;26964;50.428;19.218;2023-08-06T02:20:01;9.6;;;6.9;;
41229;SDS011;26964;50.428;19.218;2023-08-06T02:21:01;7.5;;;6.7;;
41229;SDS011;26964;50.428;19.218;2023-08-06T02:22:01;7.7;;;6.2;;
41229;SDS011;26964;50.428;19.218;2023-08-06T02:23:00;9.6;;;6.9;;
41229;SDS011;26964;50.428;19.218;2023-08-06T02:24:01;7.4;;;6.6;;
41229;SDS011;26964;50.428;19.218;2023-08-06T02:25:01;7.2;;;6.5;;
41229;SDS011;26964;50.428;19.218;2023-08-06T02:26:01;7.9;;;6.7;;
41229;SDS011;26964;50.428;19.218;2023-08-06T02:27:02;8.9;;;6.9;;
41229;SDS011;26964;50.428;19.218;2023-08-06T02:28:01;8.7;;;6.7;;
41229;SDS011;26964;50.428;19.218;2023-08-06T02:29:03;8.1;;;7.0;;
41229;SDS011;26964;50.428;19.218;2023-08-06T02:30:02;8.6;;;7.1;;
41229;SDS011;26964;50.428;19.218;2023-08-06T02:31:01;7.1;;;6.4;;
41229;SDS011;26964;50.428;19.218;2023-08-06T02:32:01;10.4;;;6.6;;
41229;SDS011;26964;50.428;19.218;2023-08-06T02:33:01;7.0;;;6.2;;
41229;SDS011;26964;50.428;19.218;2023-08-06T02:34:01;10.2;;;7.0;;
41229;SDS011;26964;50.428;19.218;2023-08-06T02:35:01;10.2;;;6.6;;
41229;SDS011;26964;50.428;19.218;2023-08-06T02:36:01;8.2;;;6.3;;
41229;SDS011;26964;50.428;19.218;2023-08-06T02:37:01;9.0;;;6.8;;
41229;SDS011;26964;50.428;19.218;2023-08-06T02:38:02;8.5;;;7.6;;
41229;SDS011;26964;50.428;19.218;2023-08-06T02:39:01;8.2;;;6.8;;
41229;SDS011;26964;50.428;19.218;2023-08-06T02:40:01;7.7;;;6.9;;
41229;SDS011;26964;50.428;19.218;2023-08-06T02:41:01;7.6;;;6.5;;
41229;SDS011;26964;50.428;19.218;2023-08-06T02:42:01;7.8;;;6.8;;
41229;SDS011;26964;50.428;19.218;2023-08-06T02:43:01;8.4;;;7.4;;
41229;SDS011;26964;50.428;19.218;2023-08-06T02:44:01;8.0;;;7.0;;
41229;SDS011;26964;50.428;19.218;2023-08-06T02:45:01;9.9;;;7.9;;
41229;SDS011;26964;50.428;19.218;2023-08-06T02:46:01;9.4;;;8.1;;
41229;SDS011;26964;50.428;19.218;2023-08-06T02:47:01;11.1;;;9.0;;
41229;SDS011;26964;50.428;19.218;2023-08-06T02:48:01;9.7;;;8.7;;
41229;SDS011;26964;50.428;19.218;2023-08-06T02:49:01;10.6;;;9.1;;
41229;SDS011;26964;50.428;19.218;2023-08-06T02:50:01;10.0;;;8.8;;
41229;SDS011;26964;50.428;19.218;2023-08-06T02:51:01;10.6;;;9.2;;
41229;SDS011;26964;50.428;19.218;2023-08-06T02:52:01;13.8;;;10.2;;
41229;SDS011;26964;50.428;19.218;2023-08-06T02:53:01;11.5;;;9.5;;
41229;SDS011;26964;50.428;19.218;2023-08-06T02:54:01;11.1;;;9.5;;
41229;SDS011;26964;50.428;19.218;2023-08-06T02:55:01;10.6;;;8.6;;
41229;SDS011;26964;50.428;19.218;2023-08-06T02:56:02;11.5;;;9.0;;
41229;SDS011;26964;50.428;19.218;2023-08-06T02:57:00;11.2;;;9.3;;
41229;SDS011;26964;50.428;19.218;2023-08-06T02:58:01;9.7;;;8.7;;
41229;SDS011;26964;50.428;19.218;2023-08-06T02:59:01;10.9;;;9.3;;
41229;SDS011;26964;50.428;19.218;2023-08-06T03:00:04;12.1;;;9.4;;
41229;SDS011;26964;50.428;19.218;2023-08-06T03:01:04;11.8;;;9.5;;
41229;SDS011;26964;50.428;19.218;2023-08-06T03:02:01;12.1;;;9.5;;
41229;SDS011;26964;50.428;19.218;2023-08-06T03:03:01;13.9;;;9.3;;
41229;SDS011;26964;50.428;19.218;2023-08-06T03:04:01;10.4;;;9.3;;
41229;SDS011;26964;50.428;19.218;2023-08-06T03:05:02;12.3;;;10.0;;
41229;SDS011;26964;50.428;19.218;2023-08-06T03:06:01;12.5;;;9.8;;
41229;SDS011;26964;50.428;19.218;2023-08-06T03:07:01;12.0;;;10.1;;
41229;SDS011;26964;50.428;19.218;2023-08-06T03:08:02;12.4;;;10.3;;
41229;SDS011;26964;50.428;19.218;2023-08-06T03:09:01;11.6;;;9.9;;
41229;SDS011;26964;50.428;19.218;2023-08-06T03:10:01;18.4;;;9.8;;
41229;SDS011;26964;50.428;19.218;2023-08-06T03:11:01;11.8;;;9.8;;
41229;SDS011;26964;50.428;19.218;2023-08-06T03:12:01;12.1;;;10.1;;
41229;SDS011;26964;50.428;19.218;2023-08-06T03:13:00;12.7;;;9.5;;
41229;SDS011;26964;50.428;19.218;2023-08-06T03:14:01;12.1;;;9.7;;
41229;SDS011;26964;50.428;19.218;2023-08-06T03:15:01;11.3;;;9.6;;
41229;SDS011;26964;50.428;19.218;2023-08-06T03:16:00;11.7;;;9.5;;
41229;SDS011;26964;50.428;19.218;2023-08-06T03:17:01;14.4;;;10.0;;
41229;SDS011;26964;50.428;19.218;2023-08-06T03:18:01;13.0;;;9.2;;
41229;SDS011;26964;50.428;19.218;2023-08-06T03:19:01;13.0;;;10.2;;
41229;SDS011;26964;50.428;19.218;2023-08-06T03:20:01;13.4;;;9.4;;
41229;SDS011;26964;50.428;19.218;2023-08-06T03:21:00;18.6;;;10.9;;
41229;SDS011;26964;50.428;19.218;2023-08-06T03:22:00;15.6;;;9.9;;
41229;SDS011;26964;50.428;19.218;2023-08-06T03:23:02;12.0;;;9.7;;
41229;SDS011;26964;50.428;19.218;2023-08-06T03:24:02;12.8;;;9.4;;
41229;SDS011;26964;50.428;19.218;2023-08-06T03:25:02;11.4;;;9.8;;
41229;SDS011;26964;50.428;19.218;2023-08-06T03:26:01;13.0;;;10.4;;
41229;SDS011;26964;50.428;19.218;2023-08-06T03:27:01;11.3;;;9.6;;
41229;SDS011;26964;50.428;19.218;2023-08-06T03:28:00;11.9;;;9.1;;
41229;SDS011;26964;50.428;19.218;2023-08-06T03:29:01;11.8;;;9.4;;
41229;SDS011;26964;50.428;19.218;2023-08-06T03:30:01;12.3;;;9.6;;
41229;SDS011;26964;50.428;19.218;2023-08-06T03:31:01;9.6;;;8.6;;
41229;SDS011;26964;50.428;19.218;2023-08-06T03:32:01;9.8;;;8.6;;
41229;SDS011;26964;50.428;19.218;2023-08-06T03:33:01;9.7;;;8.3;;
41229;SDS011;26964;50.428;19.218;2023-08-06T03:34:01;9.5;;;8.5;;
41229;SDS011;26964;50.428;19.218;2023-08-06T03:35:01;11.4;;;8.3;;
41229;SDS011;26964;50.428;19.218;2023-08-06T03:36:01;8.9;;;8.0;;
41229;SDS011;26964;50.428;19.218;2023-08-06T03:37:01;9.2;;;8.2;;
41229;SDS011;26964;50.428;19.218;2023-08-06T03:38:01;10.0;;;7.8;;
41229;SDS011;26964;50.428;19.218;2023-08-06T03:39:01;9.4;;;8.4;;
41229;SDS011;26964;50.428;19.218;2023-08-06T03:40:02;7.6;;;6.9;;
41229;SDS011;26964;50.428;19.218;2023-08-06T03:41:01;9.3;;;8.3;;
41229;SDS011;26964;50.428;19.218;2023-08-06T03:42:02;8.9;;;7.7;;
41229;SDS011;26964;50.428;19.218;2023-08-06T03:43:01;9.4;;;8.5;;
41229;SDS011;26964;50.428;19.218;2023-08-06T03:44:01;11.1;;;8.3;;
41229;SDS011;26964;50.428;19.218;2023-08-06T03:45:01;10.4;;;9.3;;
41229;SDS011;26964;50.428;19.218;2023-08-06T03:46:02;10.2;;;9.1;;
41229;SDS011;26964;50.428;19.218;2023-08-06T03:47:01;11.0;;;9.7;;
41229;SDS011;26964;50.428;19.218;2023-08-06T03:48:01;10.9;;;9.1;;
41229;SDS011;26964;50.428;19.218;2023-08-06T03:49:01;11.8;;;9.5;;
41229;SDS011;26964;50.428;19.218;2023-08-06T03:50:01;15.5;;;11.0;;
41229;SDS011;26964;50.428;19.218;2023-08-06T03:51:01;11.9;;;10.7;;
41229;SDS011;26964;50.428;19.218;2023-08-06T03:52:01;12.7;;;11.1;;
41229;SDS011;26964;50.428;19.218;2023-08-06T03:53:01;12.1;;;10.9;;
41229;SDS011;26964;50.428;19.218;2023-08-06T03:54:01;12.9;;;11.0;;
41229;SDS011;26964;50.428;19.218;2023-08-06T03:55:02;16.1;;;11.7;;
41229;SDS011;26964;50.428;19.218;2023-08-06T03:56:01;13.3;;;11.7;;
41229;SDS011;26964;50.428;19.218;2023-08-06T03:57:01;16.3;;;11.9;;
41229;SDS011;26964;50.428;19.218;2023-08-06T03:58:01;18.2;;;12.3;;
41229;SDS011;26964;50.428;19.218;2023-08-06T03:59:02;14.9;;;11.6;;
41229;SDS011;26964;50.428;19.218;2023-08-06T04:00:00;13.8;;;11.7;;
41229;SDS011;26964;50.428;19.218;2023-08-06T04:01:00;14.4;;;12.1;;
41229;SDS011;26964;50.428;19.218;2023-08-06T04:02:00;15.5;;;12.5;;
41229;SDS011;26964;50.428;19.218;2023-08-06T04:03:01;14.9;;;11.9;;
41229;SDS011;26964;50.428;19.218;2023-08-06T04:04:00;14.3;;;12.1;;
41229;SDS011;26964;50.428;19.218;2023-08-06T04:05:02;14.4;;;12.8;;
41229;SDS011;26964;50.428;19.218;2023-08-06T04:06:02;15.8;;;11.8;;
41229;SDS011;26964;50.428;19.218;2023-08-06T04:07:01;13.2;;;11.8;;
41229;SDS011;26964;50.428;19.218;2023-08-06T04:08:00;15.5;;;12.3;;
41229;SDS011;26964;50.428;19.218;2023-08-06T04:09:00;15.9;;;12.4;;
41229;SDS011;26964;50.428;19.218;2023-08-06T04:10:02;15.6;;;12.3;;
41229;SDS011;26964;50.428;19.218;2023-08-06T04:11:00;18.2;;;13.2;;
41229;SDS011;26964;50.428;19.218;2023-08-06T04:12:00;14.2;;;12.7;;
41229;SDS011;26964;50.428;19.218;2023-08-06T04:13:01;15.6;;;12.4;;
41229;SDS011;26964;50.428;19.218;2023-08-06T04:14:01;15.3;;;12.5;;
41229;SDS011;26964;50.428;19.218;2023-08-06T04:15:02;15.2;;;12.9;;
41229;SDS011;26964;50.428;19.218;2023-08-06T04:16:01;13.9;;;12.4;;
41229;SDS011;26964;50.428;19.218;2023-08-06T04:17:01;16.1;;;12.6;;
41229;SDS011;26964;50.428;19.218;2023-08-06T04:18:00;14.8;;;11.9;;
41229;SDS011;26964;50.428;19.218;2023-08-06T04:19:00;19.1;;;13.0;;
41229;SDS011;26964;50.428;19.218;2023-08-06T04:20:01;16.1;;;12.7;;
41229;SDS011;26964;50.428;19.218;2023-08-06T04:21:01;15.3;;;12.6;;
41229;SDS011;26964;50.428;19.218;2023-08-06T04:22:01;16.4;;;12.4;;
41229;SDS011;26964;50.428;19.218;2023-08-06T04:23:05;14.0;;;12.0;;
41229;SDS011;26964;50.428;19.218;2023-08-06T04:24:00;16.7;;;12.1;;
41229;SDS011;26964;50.428;19.218;2023-08-06T04:25:01;14.7;;;11.6;;
41229;SDS011;26964;50.428;19.218;2023-08-06T04:26:00;15.2;;;12.7;;
41229;SDS011;26964;50.428;19.218;2023-08-06T04:27:00;16.7;;;13.0;;
41229;SDS011;26964;50.428;19.218;2023-08-06T04:28:00;16.2;;;13.0;;
41229;SDS011;26964;50.428;19.218;2023-08-06T04:29:01;16.7;;;12.8;;
41229;SDS011;26964;50.428;19.218;2023-08-06T04:30:01;15.0;;;12.8;;
41229;SDS011;26964;50.428;19.218;2023-08-06T04:31:00;18.0;;;12.1;;
41229;SDS011;26964;50.428;19.218;2023-08-06T04:32:00;16.2;;;12.6;;
41229;SDS011;26964;50.428;19.218;2023-08-06T04:33:00;16.4;;;12.5;;
41229;SDS011;26964;50.428;19.218;2023-08-06T04:34:01;18.0;;;13.2;;
41229;SDS011;26964;50.428;19.218;2023-08-06T04:35:00;18.4;;;13.1;;
41229;SDS011;26964;50.428;19.218;2023-08-06T04:36:00;18.0;;;13.2;;
41229;SDS011;26964;50.428;19.218;2023-08-06T04:37:01;20.4;;;13.8;;
41229;SDS011;26964;50.428;19.218;2023-08-06T04:38:00;19.2;;;13.9;;
41229;SDS011;26964;50.428;19.218;2023-08-06T04:39:01;19.1;;;12.5;;
41229;SDS011;26964;50.428;19.218;2023-08-06T04:40:00;17.8;;;13.5;;
41229;SDS011;26964;50.428;19.218;2023-08-06T04:41:01;14.6;;;12.5;;
41229;SDS011;26964;50.428;19.218;2023-08-06T04:42:00;18.4;;;13.5;;
41229;SDS011;26964;50.428;19.218;2023-08-06T04:43:00;19.2;;;14.1;;
41229;SDS011;26964;50.428;19.218;2023-08-06T04:44:03;18.3;;;13.8;;
41229;SDS011;26964;50.428;19.218;2023-08-06T04:45:01;18.2;;;14.0;;
41229;SDS011;26964;50.428;19.218;2023-08-06T04:46:00;20.2;;;13.7;;
41229;SDS011;26964;50.428;19.218;2023-08-06T04:47:02;18.3;;;13.7;;
41229;SDS011;26964;50.428;19.218;2023-08-06T04:48:01;18.1;;;13.9;;
41229;SDS011;26964;50.428;19.218;2023-08-06T04:49:01;19.3;;;13.8;;
41229;SDS011;26964;50.428;19.218;2023-08-06T04:50:00;15.1;;;12.8;;
41229;SDS011;26964;50.428;19.218;2023-08-06T04:51:01;19.2;;;13.5;;
41229;SDS011;26964;50.428;19.218;2023-08-06T04:52:00;16.2;;;13.4;;
41229;SDS011;26964;50.428;19.218;2023-08-06T04:53:00;20.0;;;13.1;;
41229;SDS011;26964;50.428;19.218;2023-08-06T04:54:00;19.5;;;13.6;;
41229;SDS011;26964;50.428;19.218;2023-08-06T04:55:00;16.3;;;13.0;;
41229;SDS011;26964;50.428;19.218;2023-08-06T04:56:00;17.1;;;13.1;;
41229;SDS011;26964;50.428;19.218;2023-08-06T04:57:00;18.7;;;14.4;;
41229;SDS011;26964;50.428;19.218;2023-08-06T04:58:00;18.3;;;14.0;;
41229;SDS011;26964;50.428;19.218;2023-08-06T04:59:00;19.9;;;14.0;;
41229;SDS011;26964;50.428;19.218;2023-08-06T05:00:00;19.3;;;14.7;;
41229;SDS011;26964;50.428;19.218;2023-08-06T05:01:00;20.4;;;14.9;;
41229;SDS011;26964;50.428;19.218;2023-08-06T05:02:00;18.1;;;14.3;;
41229;SDS011;26964;50.428;19.218;2023-08-06T05:03:00;18.3;;;14.1;;
41229;SDS011;26964;50.428;19.218;2023-08-06T05:04:01;18.3;;;14.1;;
41229;SDS011;26964;50.428;19.218;2023-08-06T05:05:00;20.0;;;13.9;;
41229;SDS011;26964;50.428;19.218;2023-08-06T05:06:00;19.6;;;13.8;;
41229;SDS011;26964;50.428;19.218;2023-08-06T05:07:00;18.9;;;14.4;;
41229;SDS011;26964;50.428;19.218;2023-08-06T05:08:00;16.0;;;13.1;;
41229;SDS011;26964;50.428;19.218;2023-08-06T05:09:01;20.9;;;14.0;;
41229;SDS011;26964;50.428;19.218;2023-08-06T05:10:00;16.6;;;13.4;;
41229;SDS011;26964;50.428;19.218;2023-08-06T05:11:00;19.6;;;14.0;;
41229;SDS011;26964;50.428;19.218;2023-08-06T05:12:00;22.4;;;14.5;;
41229;SDS011;26964;50.428;19.218;2023-08-06T05:13:00;17.8;;;14.6;;
41229;SDS011;26964;50.428;19.218;2023-08-06T05:14:00;20.5;;;15.0;;
41229;SDS011;26964;50.428;19.218;2023-08-06T05:15:00;20.8;;;15.5;;
41229;SDS011;26964;50.428;19.218;2023-08-06T05:16:00;20.4;;;15.2;;
41229;SDS011;26964;50.428;19.218;2023-08-06T05:17:00;23.1;;;17.2;;
41229;SDS011;26964;50.428;19.218;2023-08-06T05:18:00;24.2;;;16.4;;
41229;SDS011;26964;50.428;19.218;2023-08-06T05:19:00;21.4;;;16.9;;
41229;SDS011;26964;50.428;19.218;2023-08-06T05:20:00;21.9;;;15.5;;
41229;SDS011;26964;50.428;19.218;2023-08-06T05:21:00;22.2;;;16.8;;
41229;SDS011;26964;50.428;19.218;2023-08-06T05:22:00;26.0;;;17.4;;
41229;SDS011;26964;50.428;19.218;2023-08-06T05:23:00;21.2;;;16.3;;
41229;SDS011;26964;50.428;19.218;2023-08-06T05:24:00;27.3;;;17.6;;
41229;SDS011;26964;50.428;19.218;2023-08-06T05:25:00;28.6;;;17.7;;
41229;SDS011;26964;50.428;19.218;2023-08-06T05:26:00;27.2;;;17.7;;
41229;SDS011;26964;50.428;19.218;2023-08-06T05:27:00;26.5;;;18.4;;
41229;SDS011;26964;50.428;19.218;2023-08-06T05:28:00;26.6;;;18.7;;
41229;SDS011;26964;50.428;19.218;2023-08-06T05:29:00;32.0;;;19.5;;
41229;SDS011;26964;50.428;19.218;2023-08-06T05:30:00;24.7;;;17.1;;
41229;SDS011;26964;50.428;19.218;2023-08-06T05:31:02;28.6;;;19.4;;
41229;SDS011;26964;50.428;19.218;2023-08-06T05:32:00;25.7;;;17.7;;
41229;SDS011;26964;50.428;19.218;2023-08-06T05:33:00;32.2;;;19.5;;
41229;SDS011;26964;50.428;19.218;2023-08-06T05:34:00;28.1;;;19.0;;
41229;SDS011;26964;50.428;19.218;2023-08-06T05:35:00;27.2;;;19.0;;
41229;SDS011;26964;50.428;19.218;2023-08-06T05:36:00;30.7;;;19.0;;
41229;SDS011;26964;50.428;19.218;2023-08-06T05:37:00;30.3;;;19.3;;
41229;SDS011;26964;50.428;19.218;2023-08-06T05:38:00;31.2;;;18.4;;
41229;SDS011;26964;50.428;19.218;2023-08-06T05:39:00;31.6;;;18.8;;
41229;SDS011;26964;50.428;19.218;2023-08-06T05:40:00;34.5;;;19.9;;
41229;SDS011;26964;50.428;19.218;2023-08-06T05:41:00;31.6;;;18.9;;
41229;SDS011;26964;50.428;19.218;2023-08-06T05:42:00;33.9;;;19.5;;
41229;SDS011;26964;50.428;19.218;2023-08-06T05:43:00;32.7;;;19.6;;
41229;SDS011;26964;50.428;19.218;2023-08-06T05:44:00;31.0;;;19.3;;
41229;SDS011;26964;50.428;19.218;2023-08-06T05:45:00;30.1;;;19.2;;
41229;SDS011;26964;50.428;19.218;2023-08-06T05:46:00;32.7;;;20.5;;
41229;SDS011;26964;50.428;19.218;2023-08-06T05:47:00;31.9;;;19.8;;
41229;SDS011;26964;50.428;19.218;2023-08-06T05:48:00;37.9;;;20.3;;
41229;SDS011;26964;50.428;19.218;2023-08-06T05:49:00;33.8;;;20.2;;
41229;SDS011;26964;50.428;19.218;2023-08-06T05:50:00;34.1;;;19.9;;
41229;SDS011;26964;50.428;19.218;2023-08-06T05:51:00;33.8;;;19.7;;
41229;SDS011;26964;50.428;19.218;2023-08-06T05:52:00;34.8;;;20.8;;
41229;SDS011;26964;50.428;19.218;2023-08-06T05:53:00;37.6;;;21.1;;
41229;SDS011;26964;50.428;19.218;2023-08-06T05:54:00;38.2;;;20.4;;
41229;SDS011;26964;50.428;19.218;2023-08-06T05:55:00;34.5;;;18.8;;
41229;SDS011;26964;50.428;19.218;2023-08-06T05:56:00;38.5;;;21.3;;
41229;SDS011;26964;50.428;19.218;2023-08-06T05:57:00;34.3;;;19.6;;
41229;SDS011;26964;50.428;19.218;2023-08-06T05:58:00;42.7;;;21.0;;
41229;SDS011;26964;50.428;19.218;2023-08-06T05:59:00;38.7;;;22.6;;
41229;SDS011;26964;50.428;19.218;2023-08-06T06:00:02;34.8;;;22.7;;
41229;SDS011;26964;50.428;19.218;2023-08-06T06:01:00;38.7;;;23.8;;
41229;SDS011;26964;50.428;19.218;2023-08-06T06:02:00;38.5;;;23.4;;
41229;SDS011;26964;50.428;19.218;2023-08-06T06:03:00;37.6;;;23.3;;